Terminal Aerodrome Forecast
Issued by NWS Duluth, MN

Home | Current Version | Previous Version | Text Only | Print | Product List | Glossary On
Versions: 1 2 3 4 5 6 7 8 9 10 11 12 13 14 15 16 17 18 19 20 21 22 23 24 25 26 27
000
FTUS43 KDLH 200700 AAA
TAFINL
TAF AMD
KINL 200740Z 2008/2106 00000KT 3SM BR SKC
      TEMPO 2008/2010 1/2SM FG
     FM201000 00000KT 3SM BR SCT004 OVC007
      TEMPO 2010/2013 1/2SM FG OVC003
     FM201400 11005KT P6SM SCT015
     FM201600 13005KT P6SM SKC=

USA.gov is the U.S. government's official web portal to all federal, state and local government web resources and services.